createdAt,value
2017-09-09T00:00:16.217Z,100
2017-09-09T00:01:18.608Z,100
2017-09-09T00:02:21.000Z,100
2017-09-09T00:03:23.390Z,100
2017-09-09T00:04:25.784Z,100
2017-09-09T00:05:28.184Z,100
2017-09-09T00:06:30.571Z,100
2017-09-09T00:07:32.973Z,100
2017-09-09T00:08:35.371Z,100
2017-09-09T00:09:37.758Z,100
2017-09-09T00:10:40.152Z,100
2017-09-09T00:11:42.550Z,100
2017-09-09T00:12:45.280Z,100
2017-09-09T00:13:47.672Z,100
2017-09-09T00:14:50.061Z,100
2017-09-09T00:15:52.459Z,100
2017-09-09T00:16:54.865Z,100
2017-09-09T00:17:57.261Z,100
2017-09-09T00:18:59.654Z,100
2017-09-09T00:20:02.062Z,100
2017-09-09T00:21:04.795Z,100
2017-09-09T00:22:07.184Z,100
2017-09-09T00:23:09.577Z,100
2017-09-09T00:24:12.306Z,100
2017-09-09T00:25:14.700Z,100
2017-09-09T00:26:17.107Z,100
2017-09-09T00:27:19.494Z,100
2017-09-09T00:28:21.883Z,100
2017-09-09T00:29:24.622Z,100
2017-09-09T00:30:27.022Z,100
2017-09-09T00:31:29.421Z,100
2017-09-09T00:32:31.819Z,100
2017-09-09T00:33:34.203Z,100
2017-09-09T00:34:36.601Z,100
2017-09-09T00:35:39.007Z,100
2017-09-09T00:36:41.409Z,100
2017-09-09T00:37:43.802Z,100
2017-09-09T00:38:46.198Z,100
2017-09-09T00:39:48.593Z,100
2017-09-09T00:40:50.978Z,100
2017-09-09T00:41:53.382Z,100
2017-09-09T00:42:56.108Z,100
2017-09-09T00:43:58.503Z,100
2017-09-09T00:45:00.887Z,100
2017-09-09T00:46:03.286Z,100
2017-09-09T00:47:05.681Z,100
2017-09-09T00:48:08.083Z,100
2017-09-09T00:49:10.470Z,100
2017-09-09T00:50:13.218Z,100
2017-09-09T00:51:15.607Z,100
2017-09-09T00:52:18.348Z,100
2017-09-09T00:53:20.735Z,100
2017-09-09T00:54:23.136Z,100
2017-09-09T00:55:25.533Z,100
2017-09-09T00:56:28.279Z,100
2017-09-09T00:57:30.675Z,100
2017-09-09T00:58:33.066Z,100
2017-09-09T00:59:35.457Z,100
2017-09-09T01:00:37.860Z,100
2017-09-09T01:01:40.250Z,100
2017-09-09T01:02:42.646Z,100
2017-09-09T01:03:45.046Z,100
2017-09-09T01:04:47.769Z,100
2017-09-09T01:05:50.165Z,100
2017-09-09T01:06:52.561Z,100
2017-09-09T01:07:54.948Z,100
2017-09-09T01:08:57.345Z,100
2017-09-09T01:09:59.739Z,100
2017-09-09T01:11:02.132Z,100
2017-09-09T01:12:04.870Z,100
2017-09-09T01:13:07.265Z,100
2017-09-09T01:14:09.648Z,100
2017-09-09T01:15:12.054Z,100
2017-09-09T01:16:14.446Z,100
2017-09-09T01:17:16.848Z,100
2017-09-09T01:18:19.243Z,100
2017-09-09T01:19:21.634Z,100
2017-09-09T01:20:24.367Z,100
2017-09-09T01:21:27.097Z,100
2017-09-09T01:22:29.485Z,100
2017-09-09T01:23:32.229Z,100
2017-09-09T01:24:34.617Z,100
2017-09-09T01:25:37.019Z,100
2017-09-09T01:26:39.410Z,100
2017-09-09T01:27:41.813Z,100
2017-09-09T01:28:44.206Z,100
2017-09-09T01:29:46.604Z,100
2017-09-09T01:30:48.999Z,100
2017-09-09T01:31:51.392Z,100
2017-09-09T01:32:53.783Z,100
2017-09-09T01:33:56.179Z,100
2017-09-09T01:34:58.915Z,100
2017-09-09T01:36:01.305Z,100
2017-09-09T01:37:03.701Z,100
2017-09-09T01:38:06.117Z,100
2017-09-09T01:39:08.488Z,99
2017-09-09T01:40:10.886Z,99
2017-09-09T01:41:13.288Z,99
2017-09-09T01:42:15.676Z,99
2017-09-09T01:43:18.073Z,99
2017-09-09T01:44:20.466Z,99
2017-09-09T01:45:22.850Z,99
2017-09-09T01:46:25.248Z,99
2017-09-09T01:47:27.643Z,99
2017-09-09T01:48:30.028Z,99
2017-09-09T01:49:32.436Z,99
2017-09-09T01:50:34.829Z,99
2017-09-09T01:51:37.215Z,99
2017-09-09T01:52:39.611Z,99
2017-09-09T01:53:42.007Z,99
2017-09-09T01:54:44.409Z,99
2017-09-09T01:55:46.808Z,99
2017-09-09T01:56:49.195Z,99
2017-09-09T01:57:51.593Z,99
2017-09-09T01:58:53.993Z,99
2017-09-09T01:59:56.378Z,99
2017-09-09T02:00:58.769Z,98
2017-09-09T02:02:01.169Z,98
2017-09-09T02:03:03.553Z,98
2017-09-09T02:04:05.960Z,98
2017-09-09T02:05:08.345Z,98
2017-09-09T02:06:10.743Z,98
2017-09-09T02:07:13.136Z,98
2017-09-09T02:08:15.530Z,98
2017-09-09T02:09:17.929Z,98
2017-09-09T02:10:20.321Z,98
2017-09-09T02:11:22.706Z,98
2017-09-09T02:12:25.110Z,98
2017-09-09T02:13:27.499Z,98
2017-09-09T02:14:29.893Z,98
2017-09-09T02:15:32.286Z,99
2017-09-09T02:16:34.674Z,99
2017-09-09T02:17:37.068Z,99
2017-09-09T02:18:39.470Z,99
2017-09-09T02:19:41.862Z,99
2017-09-09T02:20:44.597Z,98
2017-09-09T02:21:47.335Z,98
2017-09-09T02:22:49.739Z,98
2017-09-09T02:23:52.135Z,98
2017-09-09T02:24:54.530Z,98
2017-09-09T02:25:56.914Z,98
2017-09-09T02:26:59.309Z,98
2017-09-09T02:28:02.047Z,98
2017-09-09T02:29:04.440Z,98
2017-09-09T02:30:06.827Z,98
2017-09-09T02:31:09.224Z,98
2017-09-09T02:32:11.627Z,98
2017-09-09T02:33:14.013Z,98
2017-09-09T02:34:16.408Z,98
2017-09-09T02:35:18.802Z,98
2017-09-09T02:36:21.200Z,98
2017-09-09T02:37:23.576Z,98
2017-09-09T02:38:25.974Z,98
2017-09-09T02:39:28.372Z,98
2017-09-09T02:40:30.765Z,98
2017-09-09T02:41:33.164Z,99
2017-09-09T02:42:35.558Z,99
2017-09-09T02:43:37.947Z,99
2017-09-09T02:44:40.349Z,99
2017-09-09T02:45:42.737Z,99
2017-09-09T02:46:45.128Z,99
2017-09-09T02:47:47.525Z,99
2017-09-09T02:48:49.925Z,99
2017-09-09T02:49:52.319Z,99
2017-09-09T02:50:54.720Z,99
2017-09-09T02:51:57.115Z,99
2017-09-09T02:52:59.512Z,99
2017-09-09T02:54:01.908Z,99
2017-09-09T02:55:04.301Z,99
2017-09-09T02:56:06.702Z,99
2017-09-09T02:57:09.096Z,99
2017-09-09T02:58:11.483Z,99
2017-09-09T02:59:13.879Z,99
2017-09-09T03:00:16.275Z,99
2017-09-09T03:01:18.676Z,99
2017-09-09T03:02:21.411Z,98
2017-09-09T03:03:23.824Z,98
2017-09-09T03:04:26.218Z,98
2017-09-09T03:05:28.605Z,98
2017-09-09T03:06:30.997Z,98
2017-09-09T03:07:33.392Z,98
2017-09-09T03:08:35.786Z,98
2017-09-09T03:09:38.188Z,98
2017-09-09T03:10:40.576Z,98
2017-09-09T03:11:42.968Z,98
2017-09-09T03:12:45.372Z,98
2017-09-09T03:13:47.765Z,98
2017-09-09T03:14:50.149Z,98
2017-09-09T03:15:52.544Z,98
2017-09-09T03:16:54.940Z,98
2017-09-09T03:17:57.340Z,98
2017-09-09T03:18:59.738Z,98
2017-09-09T03:20:02.124Z,98
2017-09-09T03:21:04.880Z,98
2017-09-09T03:22:07.287Z,98
2017-09-09T03:23:09.680Z,98
2017-09-09T03:24:12.076Z,98
2017-09-09T03:25:14.811Z,98
2017-09-09T03:26:17.201Z,99
2017-09-09T03:27:19.600Z,99
2017-09-09T03:28:21.996Z,99
2017-09-09T03:29:24.376Z,99
2017-09-09T03:30:26.774Z,99
2017-09-09T03:31:29.172Z,99
2017-09-09T03:32:31.566Z,99
2017-09-09T03:33:34.317Z,99
2017-09-09T03:34:36.722Z,99
2017-09-09T03:35:39.118Z,99
2017-09-09T03:36:41.508Z,99
2017-09-09T03:37:43.898Z,99
2017-09-09T03:38:46.294Z,99
2017-09-09T03:39:48.685Z,99
2017-09-09T03:40:51.083Z,99
2017-09-09T03:41:53.476Z,99
2017-09-09T03:42:55.876Z,99
2017-09-09T03:43:58.270Z,99
2017-09-09T03:45:00.677Z,99
2017-09-09T03:46:03.069Z,99
2017-09-09T03:47:05.471Z,99
2017-09-09T03:48:07.861Z,100
2017-09-09T03:49:10.256Z,100
2017-09-09T03:50:12.652Z,100
2017-09-09T03:51:15.041Z,100
2017-09-09T03:52:17.432Z,100
2017-09-09T03:53:19.845Z,100
2017-09-09T03:54:22.904Z,100
2017-09-09T03:55:25.305Z,100
2017-09-09T03:56:27.700Z,100
2017-09-09T03:57:30.089Z,100
2017-09-09T03:58:32.477Z,100
2017-09-09T03:59:34.874Z,100
2017-09-09T04:00:37.270Z,100
2017-09-09T04:01:39.664Z,100
2017-09-09T04:02:42.407Z,100
2017-09-09T04:03:44.799Z,100
2017-09-09T04:04:47.187Z,100
2017-09-09T04:05:49.581Z,100
2017-09-09T04:06:51.980Z,100
2017-09-09T04:07:54.378Z,100
2017-09-09T04:08:56.777Z,100
2017-09-09T04:09:59.163Z,100
2017-09-09T04:11:01.564Z,100
2017-09-09T04:12:03.970Z,100
2017-09-09T04:13:06.361Z,100
2017-09-09T04:14:08.759Z,100
2017-09-09T04:15:11.159Z,100
2017-09-09T04:16:13.547Z,100
2017-09-09T04:17:15.951Z,100
2017-09-09T04:18:18.350Z,100
2017-09-09T04:19:20.735Z,100
2017-09-09T04:20:23.132Z,100
2017-09-09T04:21:25.883Z,100
2017-09-09T04:22:28.275Z,100
2017-09-09T04:23:30.671Z,100
2017-09-09T04:24:33.059Z,100
2017-09-09T04:25:35.455Z,100
2017-09-09T04:26:37.864Z,100
2017-09-09T04:27:40.261Z,100
2017-09-09T04:28:42.998Z,100
2017-09-09T04:29:45.399Z,100
2017-09-09T04:30:48.156Z,100
2017-09-09T04:31:50.558Z,100
2017-09-09T04:32:52.981Z,100
2017-09-09T04:33:55.364Z,100
2017-09-09T04:34:57.758Z,100
2017-09-09T04:36:00.150Z,100
2017-09-09T04:37:02.549Z,100
2017-09-09T04:38:04.958Z,100
2017-09-09T04:39:07.357Z,100
2017-09-09T04:40:09.759Z,100
2017-09-09T04:41:12.152Z,100
2017-09-09T04:42:14.547Z,100
2017-09-09T04:43:16.944Z,100
2017-09-09T04:44:19.345Z,100
2017-09-09T04:45:21.731Z,100
2017-09-09T04:46:24.134Z,100
2017-09-09T04:47:26.532Z,100
2017-09-09T04:48:28.927Z,100
2017-09-09T04:49:31.318Z,100
2017-09-09T04:50:33.712Z,100
2017-09-09T04:51:36.098Z,100
2017-09-09T04:52:38.503Z,100
2017-09-09T04:53:40.895Z,100
2017-09-09T04:54:43.291Z,100
2017-09-09T04:55:45.688Z,100
2017-09-09T04:56:48.111Z,100
2017-09-09T04:57:50.483Z,100
2017-09-09T04:58:52.885Z,100
2017-09-09T04:59:55.274Z,100
2017-09-09T05:00:57.996Z,100
2017-09-09T05:02:00.396Z,100
2017-09-09T05:03:02.792Z,100
2017-09-09T05:04:05.192Z,100
2017-09-09T05:05:07.939Z,100
2017-09-09T05:06:10.337Z,100
2017-09-09T05:07:12.729Z,100
2017-09-09T05:08:15.133Z,100
2017-09-09T05:09:17.529Z,100
2017-09-09T05:10:19.926Z,100
2017-09-09T05:11:22.320Z,100
2017-09-09T05:12:25.067Z,100
2017-09-09T05:13:27.458Z,100
2017-09-09T05:14:29.855Z,100
2017-09-09T05:15:32.248Z,100
2017-09-09T05:16:34.645Z,100
2017-09-09T05:17:37.038Z,100
2017-09-09T05:18:39.429Z,100
2017-09-09T05:19:41.819Z,100
2017-09-09T05:20:44.215Z,100
2017-09-09T05:21:46.610Z,100
2017-09-09T05:22:49.012Z,100
2017-09-09T05:23:51.402Z,100
2017-09-09T05:24:53.805Z,100
2017-09-09T05:25:56.198Z,100
2017-09-09T05:26:58.600Z,100
2017-09-09T05:28:00.997Z,100
2017-09-09T05:29:03.392Z,100
2017-09-09T05:30:05.780Z,100
2017-09-09T05:31:08.179Z,100
2017-09-09T05:32:10.582Z,100
2017-09-09T05:33:12.985Z,100
2017-09-09T05:34:15.381Z,100
2017-09-09T05:35:17.769Z,100
2017-09-09T05:36:20.165Z,100
2017-09-09T05:37:22.565Z,100
2017-09-09T05:38:24.967Z,100
2017-09-09T05:39:27.357Z,100
2017-09-09T05:40:30.088Z,100
2017-09-09T05:41:32.825Z,100
2017-09-09T05:42:35.229Z,100
2017-09-09T05:43:37.633Z,100
2017-09-09T05:44:40.021Z,100
2017-09-09T05:45:42.415Z,100
2017-09-09T05:46:44.807Z,100
2017-09-09T05:47:47.209Z,100
2017-09-09T05:48:49.602Z,100
2017-09-09T05:49:51.994Z,100
2017-09-09T05:50:54.393Z,100
2017-09-09T05:51:56.790Z,100
2017-09-09T05:52:59.190Z,100
2017-09-09T05:54:01.587Z,100
2017-09-09T05:55:03.976Z,100
2017-09-09T05:56:06.364Z,100
2017-09-09T05:57:08.773Z,100
2017-09-09T05:58:11.504Z,100
2017-09-09T05:59:13.894Z,100
2017-09-09T06:00:16.296Z,100
2017-09-09T06:01:18.687Z,100
2017-09-09T06:02:21.084Z,100
2017-09-09T06:03:23.481Z,100
2017-09-09T06:04:25.874Z,100
2017-09-09T06:05:28.263Z,100
2017-09-09T06:06:30.664Z,100
2017-09-09T06:07:33.049Z,100
2017-09-09T06:08:35.455Z,100
2017-09-09T06:09:38.188Z,100
2017-09-09T06:10:40.581Z,100
2017-09-09T06:11:42.972Z,100
2017-09-09T06:12:45.371Z,100
2017-09-09T06:13:47.756Z,100
2017-09-09T06:14:50.162Z,100
2017-09-09T06:15:52.554Z,100
2017-09-09T06:16:54.950Z,100
2017-09-09T06:17:57.343Z,100
2017-09-09T06:18:59.745Z,100
2017-09-09T06:20:02.141Z,100
2017-09-09T06:21:04.551Z,100
2017-09-09T06:22:07.277Z,100
2017-09-09T06:23:09.682Z,100
2017-09-09T06:24:12.068Z,100
2017-09-09T06:25:14.462Z,100
2017-09-09T06:26:16.853Z,100
2017-09-09T06:27:19.255Z,100
2017-09-09T06:28:21.651Z,100
2017-09-09T06:29:24.052Z,100
2017-09-09T06:30:26.449Z,100
2017-09-09T06:31:28.843Z,100
2017-09-09T06:32:31.237Z,100
2017-09-09T06:33:33.631Z,100
2017-09-09T06:34:36.367Z,100
2017-09-09T06:35:38.765Z,100
2017-09-09T06:36:41.164Z,100
2017-09-09T06:37:43.558Z,100
2017-09-09T06:38:45.954Z,100
2017-09-09T06:39:48.360Z,100
2017-09-09T06:40:50.758Z,100
2017-09-09T06:41:53.150Z,100
2017-09-09T06:42:55.545Z,100
2017-09-09T06:43:57.941Z,100
2017-09-09T06:45:00.340Z,100
2017-09-09T06:46:02.752Z,100
2017-09-09T06:47:05.132Z,100
2017-09-09T06:48:07.535Z,100
2017-09-09T06:49:09.932Z,100
2017-09-09T06:50:12.327Z,100
2017-09-09T06:51:14.725Z,100
2017-09-09T06:52:17.118Z,100
2017-09-09T06:53:19.511Z,100
2017-09-09T06:54:21.913Z,100
2017-09-09T06:55:24.305Z,100
2017-09-09T06:56:26.700Z,100
2017-09-09T06:57:29.100Z,100
2017-09-09T06:58:31.496Z,100
2017-09-09T06:59:33.886Z,100
2017-09-09T07:00:36.284Z,100
2017-09-09T07:01:38.679Z,100
2017-09-09T07:02:41.083Z,100
2017-09-09T07:03:43.473Z,100
2017-09-09T07:04:45.872Z,100
2017-09-09T07:05:48.614Z,100
2017-09-09T07:06:51.011Z,100
2017-09-09T07:07:53.411Z,100
2017-09-09T07:08:55.809Z,100
2017-09-09T07:09:58.201Z,100
2017-09-09T07:11:00.592Z,100
2017-09-09T07:12:03.343Z,100
2017-09-09T07:13:05.729Z,100
2017-09-09T07:14:08.133Z,100
2017-09-09T07:15:10.528Z,100
2017-09-09T07:16:13.267Z,100
2017-09-09T07:17:16.008Z,100
2017-09-09T07:18:18.400Z,100
2017-09-09T07:19:20.799Z,100
2017-09-09T07:20:23.206Z,100
2017-09-09T07:21:25.595Z,100
2017-09-09T07:22:27.999Z,100
2017-09-09T07:23:30.397Z,100
2017-09-09T07:24:32.786Z,100
2017-09-09T07:25:35.186Z,100
2017-09-09T07:26:37.587Z,100
2017-09-09T07:27:39.974Z,100
2017-09-09T07:28:42.366Z,100
2017-09-09T07:29:45.106Z,100
2017-09-09T07:30:47.495Z,100
2017-09-09T07:31:49.891Z,100
2017-09-09T07:32:52.288Z,100
2017-09-09T07:33:54.688Z,100
2017-09-09T07:34:57.084Z,100
2017-09-09T07:35:59.486Z,100
2017-09-09T07:37:01.886Z,100
2017-09-09T07:38:04.291Z,100
2017-09-09T07:39:06.691Z,100
2017-09-09T07:40:09.091Z,100
2017-09-09T07:41:11.482Z,100
2017-09-09T07:42:13.875Z,100
2017-09-09T07:43:16.269Z,100
2017-09-09T07:44:18.674Z,100
2017-09-09T07:45:21.066Z,100
2017-09-09T07:46:23.611Z,100
2017-09-09T07:47:26.000Z,100
2017-09-09T07:48:28.403Z,100
2017-09-09T07:49:30.807Z,100
2017-09-09T07:50:33.534Z,100
2017-09-09T07:51:35.939Z,100
2017-09-09T07:52:38.335Z,100
2017-09-09T07:53:40.732Z,100
2017-09-09T07:54:43.136Z,100
2017-09-09T07:55:45.861Z,100
2017-09-09T07:56:48.260Z,100
2017-09-09T07:57:50.658Z,100
2017-09-09T07:58:53.050Z,100
2017-09-09T07:59:55.444Z,100
2017-09-09T08:00:57.834Z,100
2017-09-09T08:02:00.233Z,100
2017-09-09T08:03:02.640Z,100
2017-09-09T08:04:05.040Z,100
2017-09-09T08:05:07.427Z,100
2017-09-09T08:06:09.827Z,100
2017-09-09T08:07:12.221Z,100
2017-09-09T08:08:14.616Z,100
2017-09-09T08:09:17.010Z,100
2017-09-09T08:10:19.408Z,100
2017-09-09T08:11:22.139Z,100
2017-09-09T08:12:24.542Z,100
2017-09-09T08:13:26.934Z,100
2017-09-09T08:14:29.330Z,100
2017-09-09T08:15:32.061Z,100
2017-09-09T08:16:34.459Z,100
2017-09-09T08:17:36.858Z,100
2017-09-09T08:18:39.271Z,100
2017-09-09T08:19:41.649Z,100
2017-09-09T08:20:44.050Z,100
2017-09-09T08:21:46.436Z,100
2017-09-09T08:22:48.834Z,100
2017-09-09T08:23:51.236Z,100
2017-09-09T08:24:53.635Z,100
2017-09-09T08:25:56.025Z,100
2017-09-09T08:26:58.428Z,100
2017-09-09T08:28:01.532Z,100
2017-09-09T08:29:04.259Z,100
2017-09-09T08:30:06.686Z,100
2017-09-09T08:31:09.391Z,100
2017-09-09T08:32:11.788Z,100
2017-09-09T08:33:14.187Z,100
2017-09-09T08:34:16.590Z,100
2017-09-09T08:35:18.988Z,100
2017-09-09T08:36:21.730Z,100
2017-09-09T08:37:24.461Z,100
2017-09-09T08:38:26.848Z,100
2017-09-09T08:39:29.246Z,100
2017-09-09T08:40:31.639Z,100
2017-09-09T08:41:34.039Z,100
2017-09-09T08:42:36.432Z,100
2017-09-09T08:43:39.500Z,100
2017-09-09T08:44:41.894Z,100
2017-09-09T08:45:44.298Z,100
2017-09-09T08:46:46.700Z,100
2017-09-09T08:47:49.096Z,100
2017-09-09T08:48:51.493Z,100
2017-09-09T08:49:53.891Z,100
2017-09-09T08:50:56.282Z,100
2017-09-09T08:51:58.677Z,100
2017-09-09T08:53:01.064Z,100
2017-09-09T08:54:03.461Z,100
2017-09-09T08:55:05.866Z,100
2017-09-09T08:56:08.261Z,100
2017-09-09T08:57:10.662Z,100
2017-09-09T08:58:13.061Z,100
2017-09-09T08:59:15.455Z,100
2017-09-09T09:00:17.836Z,100
2017-09-09T09:01:20.238Z,100
2017-09-09T09:02:22.638Z,100
2017-09-09T09:03:25.384Z,100
2017-09-09T09:04:27.796Z,100
2017-09-09T09:05:30.292Z,100
2017-09-09T09:06:32.991Z,100
2017-09-09T09:07:35.394Z,100
2017-09-09T09:08:37.785Z,100
2017-09-09T09:09:40.174Z,100
2017-09-09T09:10:42.575Z,100
2017-09-09T09:11:45.313Z,100
2017-09-09T09:12:47.712Z,100
2017-09-09T09:13:50.108Z,100
2017-09-09T09:14:52.532Z,100
2017-09-09T09:15:54.921Z,100
2017-09-09T09:16:57.339Z,100
2017-09-09T09:17:59.737Z,100
2017-09-09T09:19:02.127Z,100
2017-09-09T09:20:04.862Z,100
2017-09-09T09:21:07.254Z,100
2017-09-09T09:22:09.657Z,100
2017-09-09T09:23:12.080Z,100
2017-09-09T09:24:14.481Z,100
2017-09-09T09:25:16.886Z,100
2017-09-09T09:26:19.290Z,100
2017-09-09T09:27:21.681Z,100
2017-09-09T09:28:24.077Z,100
2017-09-09T09:29:26.474Z,100
2017-09-09T09:30:28.870Z,100
2017-09-09T09:31:31.275Z,100
2017-09-09T09:32:34.553Z,100
2017-09-09T09:33:37.539Z,100
2017-09-09T09:34:39.945Z,100
2017-09-09T09:35:43.476Z,100
2017-09-09T09:36:45.868Z,100
2017-09-09T09:37:48.926Z,100
2017-09-09T09:38:52.408Z,100
2017-09-09T09:39:55.735Z,100
2017-09-09T09:40:58.922Z,100
2017-09-09T09:42:01.326Z,100
2017-09-09T09:43:04.716Z,100
2017-09-09T09:44:08.250Z,100
2017-09-09T09:45:10.986Z,100
2017-09-09T09:46:13.381Z,100
2017-09-09T09:47:15.770Z,100
2017-09-09T09:48:18.502Z,100
2017-09-09T09:49:20.894Z,100
2017-09-09T09:50:23.638Z,100
2017-09-09T09:51:26.027Z,100
2017-09-09T09:52:28.423Z,100
2017-09-09T09:53:30.817Z,100
2017-09-09T09:54:33.222Z,100
2017-09-09T09:55:35.616Z,100
2017-09-09T09:56:38.346Z,100
2017-09-09T09:57:40.734Z,100
2017-09-09T09:58:43.133Z,100
2017-09-09T09:59:45.535Z,100
2017-09-09T10:00:47.931Z,100
2017-09-09T10:01:50.323Z,100
2017-09-09T10:02:52.714Z,100
2017-09-09T10:03:55.110Z,100
2017-09-09T10:04:57.513Z,100
2017-09-09T10:05:59.911Z,100
2017-09-09T10:07:02.292Z,100
2017-09-09T10:08:04.692Z,100
2017-09-09T10:09:07.090Z,100
2017-09-09T10:10:09.489Z,100
2017-09-09T10:11:11.891Z,100
2017-09-09T10:12:14.625Z,100
2017-09-09T10:13:17.020Z,100
2017-09-09T10:14:19.411Z,100
2017-09-09T10:15:21.802Z,100
2017-09-09T10:16:24.199Z,100
2017-09-09T10:17:26.598Z,100
2017-09-09T10:18:28.994Z,100
2017-09-09T10:19:31.388Z,100
2017-09-09T10:20:33.822Z,100
2017-09-09T10:21:36.185Z,100
2017-09-09T10:22:38.586Z,100
2017-09-09T10:23:40.978Z,100
2017-09-09T10:24:43.365Z,100
2017-09-09T10:25:45.764Z,100
2017-09-09T10:26:48.156Z,100
2017-09-09T10:27:50.554Z,100
2017-09-09T10:28:53.284Z,100
2017-09-09T10:29:55.680Z,100
2017-09-09T10:30:58.070Z,100
2017-09-09T10:32:00.458Z,100
2017-09-09T10:33:02.849Z,100
2017-09-09T10:34:05.253Z,100
2017-09-09T10:35:07.646Z,100
2017-09-09T10:36:10.043Z,100
2017-09-09T10:37:12.475Z,100
2017-09-09T10:38:14.830Z,100
2017-09-09T10:39:17.228Z,100
2017-09-09T10:40:19.639Z,100
2017-09-09T10:41:22.025Z,100
2017-09-09T10:42:24.435Z,100
2017-09-09T10:43:26.826Z,100
2017-09-09T10:44:29.210Z,100
2017-09-09T10:45:31.612Z,100
2017-09-09T10:46:34.109Z,100
2017-09-09T10:47:36.507Z,100
2017-09-09T10:48:39.243Z,100
2017-09-09T10:49:41.631Z,100
2017-09-09T10:50:44.031Z,100
2017-09-09T10:51:46.433Z,100
2017-09-09T10:52:48.819Z,100
2017-09-09T10:53:51.215Z,100
2017-09-09T10:54:53.607Z,100
2017-09-09T10:55:56.003Z,100
2017-09-09T10:56:58.390Z,100
2017-09-09T10:58:00.784Z,100
2017-09-09T10:59:03.187Z,100
2017-09-09T11:00:05.584Z,100
2017-09-09T11:01:07.975Z,100
2017-09-09T11:02:10.374Z,100
2017-09-09T11:03:12.774Z,100
2017-09-09T11:04:15.180Z,100
2017-09-09T11:05:17.571Z,100
2017-09-09T11:06:19.961Z,100
2017-09-09T11:07:22.354Z,100
2017-09-09T11:08:25.090Z,100
2017-09-09T11:09:27.487Z,100
2017-09-09T11:10:29.883Z,100
2017-09-09T11:11:32.280Z,100
2017-09-09T11:12:34.676Z,100
2017-09-09T11:13:37.074Z,100
2017-09-09T11:14:39.832Z,100
2017-09-09T11:15:42.216Z,100
2017-09-09T11:16:44.615Z,100
2017-09-09T11:17:47.019Z,100
2017-09-09T11:18:49.412Z,100
2017-09-09T11:19:51.806Z,100
2017-09-09T11:20:54.200Z,100
2017-09-09T11:21:56.591Z,100
2017-09-09T11:22:58.997Z,100
2017-09-09T11:24:01.387Z,100
2017-09-09T11:25:03.805Z,100
2017-09-09T11:26:06.171Z,100
2017-09-09T11:27:08.569Z,100
2017-09-09T11:28:10.968Z,100
2017-09-09T11:29:13.351Z,100
2017-09-09T11:30:15.756Z,100
2017-09-09T11:31:18.155Z,100
2017-09-09T11:32:20.544Z,100
2017-09-09T11:33:23.279Z,100
2017-09-09T11:34:25.680Z,100
2017-09-09T11:35:28.069Z,100
2017-09-09T11:36:30.806Z,99
2017-09-09T11:37:33.194Z,99
2017-09-09T11:38:35.590Z,99
2017-09-09T11:39:37.999Z,99
2017-09-09T11:40:40.390Z,99
2017-09-09T11:41:42.786Z,99
2017-09-09T11:42:45.188Z,99
2017-09-09T11:43:47.575Z,99
2017-09-09T11:44:49.966Z,99
2017-09-09T11:45:52.364Z,99
2017-09-09T11:46:54.757Z,99
2017-09-09T11:47:57.157Z,99
2017-09-09T11:48:59.554Z,99
2017-09-09T11:50:01.940Z,99
2017-09-09T11:51:04.339Z,99
2017-09-09T11:52:06.735Z,99
2017-09-09T11:53:09.140Z,98
2017-09-09T11:54:11.532Z,99
2017-09-09T11:55:14.628Z,98
2017-09-09T11:56:17.016Z,98
2017-09-09T11:57:19.432Z,98
2017-09-09T11:58:22.165Z,97
2017-09-09T11:59:24.563Z,97
2017-09-09T12:00:26.954Z,97
2017-09-09T12:01:29.350Z,97
2017-09-09T12:02:31.743Z,97
2017-09-09T12:03:34.143Z,96
2017-09-09T12:04:36.537Z,96
2017-09-09T12:05:38.929Z,96
2017-09-09T12:06:41.328Z,96
2017-09-09T12:07:43.737Z,95
2017-09-09T12:08:46.136Z,95
2017-09-09T12:09:48.532Z,95
2017-09-09T12:10:50.916Z,95
2017-09-09T12:11:53.313Z,95
2017-09-09T12:12:55.718Z,94
2017-09-09T12:13:58.119Z,94
2017-09-09T12:15:00.853Z,94
2017-09-09T12:16:03.247Z,94
2017-09-09T12:17:05.645Z,94
2017-09-09T12:18:08.045Z,93
2017-09-09T12:19:10.448Z,93
2017-09-09T12:20:13.189Z,93
2017-09-09T12:21:15.577Z,93
2017-09-09T12:22:17.981Z,93
2017-09-09T12:23:20.380Z,93
2017-09-09T12:24:22.772Z,92
2017-09-09T12:25:25.178Z,93
2017-09-09T12:26:27.579Z,94
2017-09-09T12:27:29.973Z,92
2017-09-09T12:28:32.372Z,92
2017-09-09T12:29:34.784Z,92
2017-09-09T12:30:37.177Z,92
2017-09-09T12:31:39.569Z,91
2017-09-09T12:32:41.979Z,90
2017-09-09T12:33:44.375Z,90
2017-09-09T12:34:46.772Z,89
2017-09-09T12:35:49.171Z,89
2017-09-09T12:36:51.902Z,89
2017-09-09T12:37:54.304Z,89
2017-09-09T12:38:56.717Z,90
2017-09-09T12:39:59.108Z,90
2017-09-09T12:41:01.502Z,90
2017-09-09T12:42:03.907Z,87
2017-09-09T12:43:06.312Z,86
2017-09-09T12:44:08.721Z,86
2017-09-09T12:45:11.118Z,88
2017-09-09T12:46:13.503Z,87
2017-09-09T12:47:15.911Z,86
2017-09-09T12:48:18.313Z,85
2017-09-09T12:49:20.712Z,84
2017-09-09T12:50:23.112Z,84
2017-09-09T12:51:25.515Z,86
2017-09-09T12:52:27.910Z,83
2017-09-09T12:53:30.321Z,84
2017-09-09T12:54:32.733Z,83
2017-09-09T12:55:35.124Z,82
2017-09-09T12:56:37.524Z,83
2017-09-09T12:57:39.929Z,83
2017-09-09T12:58:42.329Z,85
2017-09-09T12:59:44.730Z,84
2017-09-09T13:00:47.135Z,84
2017-09-09T13:01:49.541Z,84
2017-09-09T13:02:52.290Z,82
2017-09-09T13:03:54.691Z,84
2017-09-09T13:04:57.421Z,83
2017-09-09T13:05:59.820Z,85
2017-09-09T13:07:02.224Z,85
2017-09-09T13:08:04.635Z,85
2017-09-09T13:09:07.378Z,84
2017-09-09T13:10:09.769Z,85
2017-09-09T13:11:12.211Z,83
2017-09-09T13:12:14.608Z,83
2017-09-09T13:13:17.342Z,82
2017-09-09T13:14:19.744Z,81
2017-09-09T13:15:22.142Z,81
2017-09-09T13:16:24.539Z,81
2017-09-09T13:17:26.953Z,80
2017-09-09T13:18:29.350Z,79
2017-09-09T13:19:31.749Z,78
2017-09-09T13:20:34.155Z,79
2017-09-09T13:21:36.561Z,79
2017-09-09T13:22:38.968Z,81
2017-09-09T13:23:41.367Z,80
2017-09-09T13:24:43.769Z,80
2017-09-09T13:25:46.169Z,81
2017-09-09T13:26:48.573Z,81
2017-09-09T13:27:50.979Z,82
2017-09-09T13:28:53.379Z,82
2017-09-09T13:29:55.793Z,83
2017-09-09T13:30:58.201Z,79
2017-09-09T13:32:00.606Z,80
2017-09-09T13:33:03.006Z,79
2017-09-09T13:34:05.408Z,80
2017-09-09T13:35:08.149Z,80
2017-09-09T13:36:10.553Z,80
2017-09-09T13:37:12.949Z,81
2017-09-09T13:38:15.356Z,79
2017-09-09T13:39:17.755Z,80
2017-09-09T13:40:20.167Z,80
2017-09-09T13:41:22.556Z,81
2017-09-09T13:42:24.961Z,80
2017-09-09T13:43:27.366Z,80
2017-09-09T13:44:29.767Z,80
2017-09-09T13:45:32.173Z,80
2017-09-09T13:46:34.580Z,81
2017-09-09T13:47:37.038Z,81
2017-09-09T13:48:39.783Z,80
2017-09-09T13:49:42.188Z,81
2017-09-09T13:50:44.595Z,80
2017-09-09T13:51:46.998Z,79
2017-09-09T13:52:49.401Z,78
2017-09-09T13:53:51.793Z,77
2017-09-09T13:54:54.474Z,77
2017-09-09T13:55:56.886Z,75
2017-09-09T13:56:59.286Z,76
2017-09-09T13:58:01.688Z,75
2017-09-09T13:59:04.097Z,75
2017-09-09T14:00:06.498Z,75
2017-09-09T14:01:08.923Z,74
2017-09-09T14:02:11.333Z,75
2017-09-09T14:03:13.734Z,73
2017-09-09T14:04:16.148Z,73
2017-09-09T14:05:18.549Z,72
2017-09-09T14:06:21.307Z,71
2017-09-09T14:07:23.717Z,72
2017-09-09T14:08:26.124Z,72
2017-09-09T14:09:28.527Z,73
2017-09-09T14:10:30.936Z,72
2017-09-09T14:11:33.350Z,72
2017-09-09T14:12:35.747Z,72
2017-09-09T14:13:38.150Z,72
2017-09-09T14:14:40.556Z,73
2017-09-09T14:15:42.965Z,73
2017-09-09T14:16:45.707Z,74
2017-09-09T14:17:48.111Z,74
2017-09-09T14:18:50.513Z,74
2017-09-09T14:19:52.916Z,75
2017-09-09T14:20:55.321Z,76
2017-09-09T14:21:57.722Z,76
2017-09-09T14:23:00.140Z,76
2017-09-09T14:24:02.526Z,76
2017-09-09T14:25:04.933Z,78
2017-09-09T14:26:07.332Z,79
2017-09-09T14:27:09.737Z,78
2017-09-09T14:28:12.134Z,77
2017-09-09T14:29:14.535Z,77
2017-09-09T14:30:16.941Z,77